sensor_id;sensor_type;location;lat;lon;timestamp;P1;durP1;ratioP1;P2;durP2;ratioP2
16153;SDS011;8182;55.648;13.208;2023-07-29T00:00:44;8.07;;;3.67;;
16153;SDS011;8182;55.648;13.208;2023-07-29T00:03:11;5.07;;;3.23;;
16153;SDS011;8182;55.648;13.208;2023-07-29T00:05:38;6.77;;;3.17;;
16153;SDS011;8182;55.648;13.208;2023-07-29T00:08:05;7.03;;;3.57;;
16153;SDS011;8182;55.648;13.208;2023-07-29T00:10:36;7.17;;;3.40;;
16153;SDS011;8182;55.648;13.208;2023-07-29T00:13:05;6.33;;;3.17;;
16153;SDS011;8182;55.648;13.208;2023-07-29T00:15:33;4.53;;;3.07;;
16153;SDS011;8182;55.648;13.208;2023-07-29T00:18:00;5.77;;;3.10;;
16153;SDS011;8182;55.648;13.208;2023-07-29T00:20:27;6.40;;;3.00;;
16153;SDS011;8182;55.648;13.208;2023-07-29T00:22:54;5.30;;;3.43;;
16153;SDS011;8182;55.648;13.208;2023-07-29T00:25:23;6.03;;;3.20;;
16153;SDS011;8182;55.648;13.208;2023-07-29T00:27:50;4.37;;;3.03;;
16153;SDS011;8182;55.648;13.208;2023-07-29T00:30:18;6.70;;;2.90;;
16153;SDS011;8182;55.648;13.208;2023-07-29T00:32:45;4.97;;;3.40;;
16153;SDS011;8182;55.648;13.208;2023-07-29T00:35:12;5.60;;;2.87;;
16153;SDS011;8182;55.648;13.208;2023-07-29T00:37:39;3.70;;;2.90;;
16153;SDS011;8182;55.648;13.208;2023-07-29T00:40:07;3.83;;;2.83;;
16153;SDS011;8182;55.648;13.208;2023-07-29T00:42:40;6.53;;;2.80;;
16153;SDS011;8182;55.648;13.208;2023-07-29T00:45:08;5.40;;;2.83;;
16153;SDS011;8182;55.648;13.208;2023-07-29T00:47:37;3.07;;;2.70;;
16153;SDS011;8182;55.648;13.208;2023-07-29T00:50:04;4.63;;;3.00;;
16153;SDS011;8182;55.648;13.208;2023-07-29T00:52:33;6.23;;;2.90;;
16153;SDS011;8182;55.648;13.208;2023-07-29T00:55:00;4.07;;;2.97;;
16153;SDS011;8182;55.648;13.208;2023-07-29T00:57:27;3.83;;;2.67;;
16153;SDS011;8182;55.648;13.208;2023-07-29T00:59:55;4.40;;;2.77;;
16153;SDS011;8182;55.648;13.208;2023-07-29T01:02:23;3.50;;;2.63;;
16153;SDS011;8182;55.648;13.208;2023-07-29T01:04:53;3.20;;;2.50;;
16153;SDS011;8182;55.648;13.208;2023-07-29T01:07:21;5.43;;;2.80;;
16153;SDS011;8182;55.648;13.208;2023-07-29T01:09:55;3.73;;;2.80;;
16153;SDS011;8182;55.648;13.208;2023-07-29T01:12:30;3.93;;;2.60;;
16153;SDS011;8182;55.648;13.208;2023-07-29T01:15:11;4.17;;;2.70;;
16153;SDS011;8182;55.648;13.208;2023-07-29T01:17:42;4.80;;;2.80;;
16153;SDS011;8182;55.648;13.208;2023-07-29T01:20:15;3.77;;;2.47;;
16153;SDS011;8182;55.648;13.208;2023-07-29T01:22:42;6.27;;;3.07;;
16153;SDS011;8182;55.648;13.208;2023-07-29T01:25:11;3.73;;;2.60;;
16153;SDS011;8182;55.648;13.208;2023-07-29T01:27:38;3.03;;;2.60;;
16153;SDS011;8182;55.648;13.208;2023-07-29T01:30:05;4.17;;;3.20;;
16153;SDS011;8182;55.648;13.208;2023-07-29T01:32:35;4.00;;;2.80;;
16153;SDS011;8182;55.648;13.208;2023-07-29T01:35:09;3.50;;;3.07;;
16153;SDS011;8182;55.648;13.208;2023-07-29T01:37:51;5.33;;;2.97;;
16153;SDS011;8182;55.648;13.208;2023-07-29T01:40:23;8.20;;;2.97;;
16153;SDS011;8182;55.648;13.208;2023-07-29T01:42:53;4.53;;;2.90;;
16153;SDS011;8182;55.648;13.208;2023-07-29T01:45:22;4.00;;;2.83;;
16153;SDS011;8182;55.648;13.208;2023-07-29T01:47:50;3.20;;;2.90;;
16153;SDS011;8182;55.648;13.208;2023-07-29T01:50:17;4.03;;;3.07;;
16153;SDS011;8182;55.648;13.208;2023-07-29T01:52:44;4.47;;;3.07;;
16153;SDS011;8182;55.648;13.208;2023-07-29T01:55:11;3.33;;;2.77;;
16153;SDS011;8182;55.648;13.208;2023-07-29T01:57:39;3.13;;;2.83;;
16153;SDS011;8182;55.648;13.208;2023-07-29T02:00:07;4.23;;;3.03;;
16153;SDS011;8182;55.648;13.208;2023-07-29T02:02:34;3.70;;;2.97;;
16153;SDS011;8182;55.648;13.208;2023-07-29T02:05:01;3.43;;;3.00;;
16153;SDS011;8182;55.648;13.208;2023-07-29T02:07:31;5.33;;;3.27;;
16153;SDS011;8182;55.648;13.208;2023-07-29T02:09:58;5.07;;;3.20;;
16153;SDS011;8182;55.648;13.208;2023-07-29T02:12:25;5.40;;;3.40;;
16153;SDS011;8182;55.648;13.208;2023-07-29T02:14:56;4.20;;;3.20;;
16153;SDS011;8182;55.648;13.208;2023-07-29T02:17:23;3.43;;;3.13;;
16153;SDS011;8182;55.648;13.208;2023-07-29T02:19:53;3.33;;;3.03;;
16153;SDS011;8182;55.648;13.208;2023-07-29T02:22:20;5.43;;;3.17;;
16153;SDS011;8182;55.648;13.208;2023-07-29T02:24:47;4.10;;;2.93;;
16153;SDS011;8182;55.648;13.208;2023-07-29T02:27:14;5.73;;;2.77;;
16153;SDS011;8182;55.648;13.208;2023-07-29T02:29:41;3.37;;;2.90;;
16153;SDS011;8182;55.648;13.208;2023-07-29T02:32:09;5.23;;;2.97;;
16153;SDS011;8182;55.648;13.208;2023-07-29T02:34:36;4.47;;;2.60;;
16153;SDS011;8182;55.648;13.208;2023-07-29T02:37:03;4.10;;;2.77;;
16153;SDS011;8182;55.648;13.208;2023-07-29T02:39:30;4.47;;;2.80;;
16153;SDS011;8182;55.648;13.208;2023-07-29T02:41:57;4.13;;;2.60;;
16153;SDS011;8182;55.648;13.208;2023-07-29T02:44:24;7.33;;;2.93;;
16153;SDS011;8182;55.648;13.208;2023-07-29T02:46:51;4.60;;;2.90;;
16153;SDS011;8182;55.648;13.208;2023-07-29T02:49:22;3.03;;;2.40;;
16153;SDS011;8182;55.648;13.208;2023-07-29T02:51:50;3.43;;;2.47;;
16153;SDS011;8182;55.648;13.208;2023-07-29T02:54:17;3.17;;;2.73;;
16153;SDS011;8182;55.648;13.208;2023-07-29T02:56:44;3.03;;;2.60;;
16153;SDS011;8182;55.648;13.208;2023-07-29T02:59:11;2.80;;;2.40;;
16153;SDS011;8182;55.648;13.208;2023-07-29T03:01:38;3.20;;;2.70;;
16153;SDS011;8182;55.648;13.208;2023-07-29T03:04:05;3.37;;;2.43;;
16153;SDS011;8182;55.648;13.208;2023-07-29T03:06:33;4.63;;;2.67;;
16153;SDS011;8182;55.648;13.208;2023-07-29T03:09:00;2.77;;;2.57;;
16153;SDS011;8182;55.648;13.208;2023-07-29T03:11:27;2.60;;;2.40;;
16153;SDS011;8182;55.648;13.208;2023-07-29T03:13:54;4.77;;;2.37;;
16153;SDS011;8182;55.648;13.208;2023-07-29T03:16:22;4.77;;;2.37;;
16153;SDS011;8182;55.648;13.208;2023-07-29T03:18:55;4.10;;;2.60;;
16153;SDS011;8182;55.648;13.208;2023-07-29T03:21:22;4.93;;;2.53;;
16153;SDS011;8182;55.648;13.208;2023-07-29T03:23:51;4.93;;;2.63;;
16153;SDS011;8182;55.648;13.208;2023-07-29T03:26:18;3.30;;;2.53;;
16153;SDS011;8182;55.648;13.208;2023-07-29T03:28:44;3.20;;;2.60;;
16153;SDS011;8182;55.648;13.208;2023-07-29T03:31:15;3.73;;;2.60;;
16153;SDS011;8182;55.648;13.208;2023-07-29T03:33:41;3.27;;;2.63;;
16153;SDS011;8182;55.648;13.208;2023-07-29T03:36:08;3.87;;;2.80;;
16153;SDS011;8182;55.648;13.208;2023-07-29T03:38:35;3.93;;;2.70;;
16153;SDS011;8182;55.648;13.208;2023-07-29T03:41:07;3.67;;;2.80;;
16153;SDS011;8182;55.648;13.208;2023-07-29T03:43:33;4.90;;;2.80;;
16153;SDS011;8182;55.648;13.208;2023-07-29T03:46:00;3.47;;;2.70;;
16153;SDS011;8182;55.648;13.208;2023-07-29T03:48:28;5.33;;;3.10;;
16153;SDS011;8182;55.648;13.208;2023-07-29T03:50:56;4.50;;;3.50;;
16153;SDS011;8182;55.648;13.208;2023-07-29T03:53:23;6.90;;;3.67;;
16153;SDS011;8182;55.648;13.208;2023-07-29T03:55:50;4.57;;;3.13;;
16153;SDS011;8182;55.648;13.208;2023-07-29T03:58:21;4.47;;;3.90;;
16153;SDS011;8182;55.648;13.208;2023-07-29T04:00:48;5.60;;;4.23;;
16153;SDS011;8182;55.648;13.208;2023-07-29T04:03:18;5.30;;;4.53;;
16153;SDS011;8182;55.648;13.208;2023-07-29T04:05:45;8.53;;;4.90;;
16153;SDS011;8182;55.648;13.208;2023-07-29T04:08:12;7.17;;;4.70;;
16153;SDS011;8182;55.648;13.208;2023-07-29T04:10:39;8.53;;;6.00;;
16153;SDS011;8182;55.648;13.208;2023-07-29T04:13:06;6.97;;;5.47;;
16153;SDS011;8182;55.648;13.208;2023-07-29T04:15:35;8.07;;;6.10;;
16153;SDS011;8182;55.648;13.208;2023-07-29T04:18:02;7.63;;;5.37;;
16153;SDS011;8182;55.648;13.208;2023-07-29T04:20:29;9.00;;;6.60;;
16153;SDS011;8182;55.648;13.208;2023-07-29T04:22:56;7.57;;;6.07;;
16153;SDS011;8182;55.648;13.208;2023-07-29T04:25:24;7.87;;;6.37;;
16153;SDS011;8182;55.648;13.208;2023-07-29T04:27:51;7.90;;;6.20;;
16153;SDS011;8182;55.648;13.208;2023-07-29T04:30:17;10.10;;;7.37;;
16153;SDS011;8182;55.648;13.208;2023-07-29T04:32:46;9.90;;;7.50;;
16153;SDS011;8182;55.648;13.208;2023-07-29T04:35:13;8.23;;;7.17;;
16153;SDS011;8182;55.648;13.208;2023-07-29T04:37:40;10.27;;;7.10;;
16153;SDS011;8182;55.648;13.208;2023-07-29T04:40:07;9.57;;;7.30;;
16153;SDS011;8182;55.648;13.208;2023-07-29T04:42:36;11.13;;;8.80;;
16153;SDS011;8182;55.648;13.208;2023-07-29T04:45:03;11.37;;;7.40;;
16153;SDS011;8182;55.648;13.208;2023-07-29T04:47:31;9.67;;;8.00;;
16153;SDS011;8182;55.648;13.208;2023-07-29T04:50:00;11.30;;;8.17;;
16153;SDS011;8182;55.648;13.208;2023-07-29T04:52:29;11.10;;;8.23;;
16153;SDS011;8182;55.648;13.208;2023-07-29T04:54:56;11.00;;;8.30;;
16153;SDS011;8182;55.648;13.208;2023-07-29T04:57:24;10.20;;;8.30;;
16153;SDS011;8182;55.648;13.208;2023-07-29T04:59:50;9.53;;;8.53;;
16153;SDS011;8182;55.648;13.208;2023-07-29T05:02:20;10.40;;;8.80;;
16153;SDS011;8182;55.648;13.208;2023-07-29T05:04:47;10.80;;;8.20;;
16153;SDS011;8182;55.648;13.208;2023-07-29T05:07:15;10.77;;;8.90;;
16153;SDS011;8182;55.648;13.208;2023-07-29T05:09:42;11.20;;;8.60;;
16153;SDS011;8182;55.648;13.208;2023-07-29T05:12:09;8.97;;;8.07;;
16153;SDS011;8182;55.648;13.208;2023-07-29T05:14:36;11.13;;;9.00;;
16153;SDS011;8182;55.648;13.208;2023-07-29T05:17:04;10.83;;;9.40;;
16153;SDS011;8182;55.648;13.208;2023-07-29T05:19:31;10.43;;;8.90;;
16153;SDS011;8182;55.648;13.208;2023-07-29T05:21:58;10.97;;;9.47;;
16153;SDS011;8182;55.648;13.208;2023-07-29T05:24:27;15.93;;;9.63;;
16153;SDS011;8182;55.648;13.208;2023-07-29T05:26:53;11.03;;;9.80;;
16153;SDS011;8182;55.648;13.208;2023-07-29T05:29:20;12.57;;;9.87;;
16153;SDS011;8182;55.648;13.208;2023-07-29T05:31:48;13.50;;;9.17;;
16153;SDS011;8182;55.648;13.208;2023-07-29T05:34:14;12.23;;;9.87;;
16153;SDS011;8182;55.648;13.208;2023-07-29T05:36:41;11.53;;;9.80;;
16153;SDS011;8182;55.648;13.208;2023-07-29T05:39:08;11.67;;;9.90;;
16153;SDS011;8182;55.648;13.208;2023-07-29T05:41:38;12.50;;;10.63;;
16153;SDS011;8182;55.648;13.208;2023-07-29T05:44:05;11.70;;;9.60;;
16153;SDS011;8182;55.648;13.208;2023-07-29T05:46:32;14.67;;;10.47;;
16153;SDS011;8182;55.648;13.208;2023-07-29T05:48:59;13.10;;;10.20;;
16153;SDS011;8182;55.648;13.208;2023-07-29T05:51:26;12.33;;;9.80;;
16153;SDS011;8182;55.648;13.208;2023-07-29T05:53:54;13.37;;;10.03;;
16153;SDS011;8182;55.648;13.208;2023-07-29T05:56:21;16.20;;;10.13;;
16153;SDS011;8182;55.648;13.208;2023-07-29T06:01:19;12.80;;;10.53;;
16153;SDS011;8182;55.648;13.208;2023-07-29T06:03:47;10.43;;;8.90;;
16153;SDS011;8182;55.648;13.208;2023-07-29T06:06:15;12.50;;;9.87;;
16153;SDS011;8182;55.648;13.208;2023-07-29T06:08:42;11.40;;;9.60;;
16153;SDS011;8182;55.648;13.208;2023-07-29T06:11:09;14.23;;;10.97;;
16153;SDS011;8182;55.648;13.208;2023-07-29T06:13:36;11.60;;;10.10;;
16153;SDS011;8182;55.648;13.208;2023-07-29T06:16:05;10.87;;;9.60;;
16153;SDS011;8182;55.648;13.208;2023-07-29T06:18:32;11.90;;;9.17;;
16153;SDS011;8182;55.648;13.208;2023-07-29T06:20:59;9.10;;;8.00;;
16153;SDS011;8182;55.648;13.208;2023-07-29T06:23:32;10.43;;;8.30;;
16153;SDS011;8182;55.648;13.208;2023-07-29T06:26:00;7.90;;;7.10;;
16153;SDS011;8182;55.648;13.208;2023-07-29T06:28:26;7.73;;;6.93;;
16153;SDS011;8182;55.648;13.208;2023-07-29T06:30:53;7.47;;;6.67;;
16153;SDS011;8182;55.648;13.208;2023-07-29T06:33:23;7.40;;;6.70;;
16153;SDS011;8182;55.648;13.208;2023-07-29T06:35:50;8.37;;;6.20;;
16153;SDS011;8182;55.648;13.208;2023-07-29T06:38:16;6.10;;;5.50;;
16153;SDS011;8182;55.648;13.208;2023-07-29T06:40:46;6.07;;;4.90;;
16153;SDS011;8182;55.648;13.208;2023-07-29T06:43:13;5.93;;;5.03;;
16153;SDS011;8182;55.648;13.208;2023-07-29T06:45:41;5.80;;;5.20;;
16153;SDS011;8182;55.648;13.208;2023-07-29T06:48:08;5.97;;;4.80;;
16153;SDS011;8182;55.648;13.208;2023-07-29T06:50:36;4.90;;;4.40;;
16153;SDS011;8182;55.648;13.208;2023-07-29T06:53:03;6.87;;;4.40;;
16153;SDS011;8182;55.648;13.208;2023-07-29T06:55:30;5.33;;;4.10;;
16153;SDS011;8182;55.648;13.208;2023-07-29T06:57:57;6.13;;;4.33;;
16153;SDS011;8182;55.648;13.208;2023-07-29T07:00:24;4.53;;;3.93;;
16153;SDS011;8182;55.648;13.208;2023-07-29T07:02:51;6.73;;;3.90;;
16153;SDS011;8182;55.648;13.208;2023-07-29T07:05:18;5.60;;;4.10;;
16153;SDS011;8182;55.648;13.208;2023-07-29T07:07:46;4.50;;;4.10;;
16153;SDS011;8182;55.648;13.208;2023-07-29T07:10:13;7.60;;;4.30;;
16153;SDS011;8182;55.648;13.208;2023-07-29T07:12:40;5.00;;;4.20;;
16153;SDS011;8182;55.648;13.208;2023-07-29T07:15:08;5.70;;;3.90;;
16153;SDS011;8182;55.648;13.208;2023-07-29T07:17:35;7.90;;;4.00;;
16153;SDS011;8182;55.648;13.208;2023-07-29T07:20:02;6.13;;;4.03;;
16153;SDS011;8182;55.648;13.208;2023-07-29T07:22:30;4.70;;;4.20;;
16153;SDS011;8182;55.648;13.208;2023-07-29T07:24:58;4.30;;;3.70;;
16153;SDS011;8182;55.648;13.208;2023-07-29T07:27:25;4.17;;;3.60;;
16153;SDS011;8182;55.648;13.208;2023-07-29T07:29:52;3.90;;;3.60;;
16153;SDS011;8182;55.648;13.208;2023-07-29T07:32:19;5.40;;;3.30;;
16153;SDS011;8182;55.648;13.208;2023-07-29T07:34:46;5.60;;;3.60;;
16153;SDS011;8182;55.648;13.208;2023-07-29T07:37:15;5.83;;;3.40;;
16153;SDS011;8182;55.648;13.208;2023-07-29T07:39:42;3.77;;;3.40;;
16153;SDS011;8182;55.648;13.208;2023-07-29T07:42:11;3.53;;;3.23;;
16153;SDS011;8182;55.648;13.208;2023-07-29T07:44:37;5.10;;;3.10;;
16153;SDS011;8182;55.648;13.208;2023-07-29T07:47:05;3.00;;;2.70;;
16153;SDS011;8182;55.648;13.208;2023-07-29T07:49:32;5.00;;;2.87;;
16153;SDS011;8182;55.648;13.208;2023-07-29T07:51:59;3.83;;;2.80;;
16153;SDS011;8182;55.648;13.208;2023-07-29T07:54:25;4.33;;;2.67;;
16153;SDS011;8182;55.648;13.208;2023-07-29T07:56:52;2.60;;;2.40;;
16153;SDS011;8182;55.648;13.208;2023-07-29T07:59:21;2.80;;;2.60;;
16153;SDS011;8182;55.648;13.208;2023-07-29T08:01:48;3.50;;;2.60;;
16153;SDS011;8182;55.648;13.208;2023-07-29T08:04:15;3.37;;;2.47;;
16153;SDS011;8182;55.648;13.208;2023-07-29T08:06:42;4.63;;;2.57;;
16153;SDS011;8182;55.648;13.208;2023-07-29T08:09:09;4.43;;;2.63;;
16153;SDS011;8182;55.648;13.208;2023-07-29T08:11:36;4.27;;;2.40;;
16153;SDS011;8182;55.648;13.208;2023-07-29T08:14:03;3.40;;;2.43;;
16153;SDS011;8182;55.648;13.208;2023-07-29T08:16:31;5.07;;;2.60;;
16153;SDS011;8182;55.648;13.208;2023-07-29T08:18:58;2.60;;;2.40;;
16153;SDS011;8182;55.648;13.208;2023-07-29T08:21:27;6.20;;;2.30;;
16153;SDS011;8182;55.648;13.208;2023-07-29T08:23:54;3.60;;;2.47;;
16153;SDS011;8182;55.648;13.208;2023-07-29T08:26:21;3.93;;;2.57;;
16153;SDS011;8182;55.648;13.208;2023-07-29T08:28:49;4.63;;;2.20;;
16153;SDS011;8182;55.648;13.208;2023-07-29T08:31:16;3.50;;;2.20;;
16153;SDS011;8182;55.648;13.208;2023-07-29T08:33:44;4.87;;;2.50;;
16153;SDS011;8182;55.648;13.208;2023-07-29T08:36:11;3.73;;;2.97;;
16153;SDS011;8182;55.648;13.208;2023-07-29T08:38:38;4.00;;;2.40;;
16153;SDS011;8182;55.648;13.208;2023-07-29T08:41:06;3.83;;;2.50;;
16153;SDS011;8182;55.648;13.208;2023-07-29T08:43:41;2.50;;;2.30;;
16153;SDS011;8182;55.648;13.208;2023-07-29T08:46:19;2.60;;;2.40;;
16153;SDS011;8182;55.648;13.208;2023-07-29T08:48:48;2.90;;;2.30;;
16153;SDS011;8182;55.648;13.208;2023-07-29T08:51:17;2.40;;;2.20;;
16153;SDS011;8182;55.648;13.208;2023-07-29T08:53:46;2.80;;;2.00;;
16153;SDS011;8182;55.648;13.208;2023-07-29T08:56:13;2.60;;;2.30;;
16153;SDS011;8182;55.648;13.208;2023-07-29T08:58:41;2.47;;;2.00;;
16153;SDS011;8182;55.648;13.208;2023-07-29T09:01:09;2.20;;;2.00;;
16153;SDS011;8182;55.648;13.208;2023-07-29T09:03:36;3.07;;;2.20;;
16153;SDS011;8182;55.648;13.208;2023-07-29T09:06:04;2.27;;;2.00;;
16153;SDS011;8182;55.648;13.208;2023-07-29T09:08:32;2.50;;;2.10;;
16153;SDS011;8182;55.648;13.208;2023-07-29T09:11:00;2.37;;;1.90;;
16153;SDS011;8182;55.648;13.208;2023-07-29T09:13:28;3.10;;;2.07;;
16153;SDS011;8182;55.648;13.208;2023-07-29T09:15:58;2.43;;;1.93;;
16153;SDS011;8182;55.648;13.208;2023-07-29T09:18:26;2.30;;;1.77;;
16153;SDS011;8182;55.648;13.208;2023-07-29T09:20:53;1.60;;;1.50;;
16153;SDS011;8182;55.648;13.208;2023-07-29T09:23:25;3.77;;;1.70;;
16153;SDS011;8182;55.648;13.208;2023-07-29T09:26:00;3.33;;;1.70;;
16153;SDS011;8182;55.648;13.208;2023-07-29T09:28:27;2.40;;;1.70;;
16153;SDS011;8182;55.648;13.208;2023-07-29T09:31:00;2.00;;;1.80;;
16153;SDS011;8182;55.648;13.208;2023-07-29T09:33:27;2.10;;;1.70;;
16153;SDS011;8182;55.648;13.208;2023-07-29T09:35:54;1.70;;;1.60;;
16153;SDS011;8182;55.648;13.208;2023-07-29T09:38:27;1.80;;;1.70;;
16153;SDS011;8182;55.648;13.208;2023-07-29T09:40:54;1.70;;;1.60;;
16153;SDS011;8182;55.648;13.208;2023-07-29T09:43:25;2.23;;;1.50;;
16153;SDS011;8182;55.648;13.208;2023-07-29T09:45:52;1.90;;;1.77;;
16153;SDS011;8182;55.648;13.208;2023-07-29T09:48:22;3.13;;;1.90;;
16153;SDS011;8182;55.648;13.208;2023-07-29T09:50:49;1.80;;;1.70;;
16153;SDS011;8182;55.648;13.208;2023-07-29T09:53:16;2.70;;;1.83;;
16153;SDS011;8182;55.648;13.208;2023-07-29T09:55:47;2.07;;;1.70;;
16153;SDS011;8182;55.648;13.208;2023-07-29T09:58:16;2.47;;;1.60;;
16153;SDS011;8182;55.648;13.208;2023-07-29T10:00:52;3.47;;;1.80;;
16153;SDS011;8182;55.648;13.208;2023-07-29T10:03:19;1.70;;;1.60;;
16153;SDS011;8182;55.648;13.208;2023-07-29T10:05:47;3.33;;;1.60;;
16153;SDS011;8182;55.648;13.208;2023-07-29T10:08:15;3.40;;;1.87;;
16153;SDS011;8182;55.648;13.208;2023-07-29T10:10:54;3.10;;;1.77;;
16153;SDS011;8182;55.648;13.208;2023-07-29T10:13:22;4.80;;;1.80;;
16153;SDS011;8182;55.648;13.208;2023-07-29T10:15:53;2.60;;;1.60;;
16153;SDS011;8182;55.648;13.208;2023-07-29T10:18:20;1.73;;;1.60;;
16153;SDS011;8182;55.648;13.208;2023-07-29T10:20:48;2.03;;;1.83;;
16153;SDS011;8182;55.648;13.208;2023-07-29T10:23:17;1.77;;;1.67;;
16153;SDS011;8182;55.648;13.208;2023-07-29T10:25:46;1.73;;;1.57;;
16153;SDS011;8182;55.648;13.208;2023-07-29T10:28:22;1.70;;;1.60;;
16153;SDS011;8182;55.648;13.208;2023-07-29T10:30:52;1.90;;;1.80;;
16153;SDS011;8182;55.648;13.208;2023-07-29T10:33:20;2.37;;;2.00;;
16153;SDS011;8182;55.648;13.208;2023-07-29T10:35:47;2.20;;;2.00;;
16153;SDS011;8182;55.648;13.208;2023-07-29T10:38:15;2.30;;;2.10;;
16153;SDS011;8182;55.648;13.208;2023-07-29T10:40:46;2.00;;;1.70;;
16153;SDS011;8182;55.648;13.208;2023-07-29T10:43:18;2.00;;;1.80;;
16153;SDS011;8182;55.648;13.208;2023-07-29T10:45:55;2.43;;;2.07;;
16153;SDS011;8182;55.648;13.208;2023-07-29T10:51:23;3.10;;;2.00;;
16153;SDS011;8182;55.648;13.208;2023-07-29T10:53:54;2.20;;;2.00;;
16153;SDS011;8182;55.648;13.208;2023-07-29T10:56:29;2.57;;;2.10;;
16153;SDS011;8182;55.648;13.208;2023-07-29T10:58:57;2.20;;;2.00;;
16153;SDS011;8182;55.648;13.208;2023-07-29T11:01:30;2.03;;;1.80;;
16153;SDS011;8182;55.648;13.208;2023-07-29T11:09:58;3.00;;;2.33;;
16153;SDS011;8182;55.648;13.208;2023-07-29T11:12:36;2.53;;;2.00;;
16153;SDS011;8182;55.648;13.208;2023-07-29T11:15:04;3.13;;;1.90;;
16153;SDS011;8182;55.648;13.208;2023-07-29T11:17:41;4.00;;;2.07;;
16153;SDS011;8182;55.648;13.208;2023-07-29T11:20:09;2.17;;;1.93;;
16153;SDS011;8182;55.648;13.208;2023-07-29T11:22:37;2.40;;;1.87;;
16153;SDS011;8182;55.648;13.208;2023-07-29T11:25:05;2.37;;;1.60;;
16153;SDS011;8182;55.648;13.208;2023-07-29T11:27:35;1.97;;;1.73;;
16153;SDS011;8182;55.648;13.208;2023-07-29T11:30:03;3.07;;;1.70;;
16153;SDS011;8182;55.648;13.208;2023-07-29T11:32:33;2.00;;;1.90;;
16153;SDS011;8182;55.648;13.208;2023-07-29T11:35:02;1.93;;;1.80;;
16153;SDS011;8182;55.648;13.208;2023-07-29T11:37:30;1.83;;;1.73;;
16153;SDS011;8182;55.648;13.208;2023-07-29T11:39:59;1.97;;;1.87;;
16153;SDS011;8182;55.648;13.208;2023-07-29T11:42:30;1.97;;;1.87;;
16153;SDS011;8182;55.648;13.208;2023-07-29T11:44:58;1.97;;;1.70;;
16153;SDS011;8182;55.648;13.208;2023-07-29T11:47:25;3.50;;;2.03;;
16153;SDS011;8182;55.648;13.208;2023-07-29T11:49:52;2.60;;;2.03;;
16153;SDS011;8182;55.648;13.208;2023-07-29T11:52:21;2.97;;;2.00;;
16153;SDS011;8182;55.648;13.208;2023-07-29T11:54:48;2.20;;;2.10;;
16153;SDS011;8182;55.648;13.208;2023-07-29T11:57:16;4.00;;;2.03;;
16153;SDS011;8182;55.648;13.208;2023-07-29T11:59:43;2.03;;;1.80;;
16153;SDS011;8182;55.648;13.208;2023-07-29T12:02:11;2.10;;;1.90;;
16153;SDS011;8182;55.648;13.208;2023-07-29T12:04:39;2.73;;;1.80;;
16153;SDS011;8182;55.648;13.208;2023-07-29T12:07:07;8.00;;;2.30;;
16153;SDS011;8182;55.648;13.208;2023-07-29T12:09:36;3.67;;;2.00;;
16153;SDS011;8182;55.648;13.208;2023-07-29T12:12:04;2.30;;;2.10;;
16153;SDS011;8182;55.648;13.208;2023-07-29T12:14:32;2.00;;;1.80;;
16153;SDS011;8182;55.648;13.208;2023-07-29T12:17:00;2.70;;;2.07;;
16153;SDS011;8182;55.648;13.208;2023-07-29T12:19:31;3.03;;;1.90;;
16153;SDS011;8182;55.648;13.208;2023-07-29T12:21:59;11.70;;;2.70;;
16153;SDS011;8182;55.648;13.208;2023-07-29T12:24:26;4.20;;;2.17;;
16153;SDS011;8182;55.648;13.208;2023-07-29T12:26:56;3.00;;;2.00;;
16153;SDS011;8182;55.648;13.208;2023-07-29T12:29:27;2.90;;;2.20;;
16153;SDS011;8182;55.648;13.208;2023-07-29T12:31:57;2.20;;;1.80;;
16153;SDS011;8182;55.648;13.208;2023-07-29T12:34:25;1.57;;;1.47;;
16153;SDS011;8182;55.648;13.208;2023-07-29T12:36:53;1.90;;;1.80;;
16153;SDS011;8182;55.648;13.208;2023-07-29T12:39:25;2.37;;;1.80;;
16153;SDS011;8182;55.648;13.208;2023-07-29T12:41:53;1.80;;;1.70;;
16153;SDS011;8182;55.648;13.208;2023-07-29T12:44:23;1.90;;;1.77;;
16153;SDS011;8182;55.648;13.208;2023-07-29T12:46:52;2.00;;;1.90;;
16153;SDS011;8182;55.648;13.208;2023-07-29T12:49:19;3.03;;;1.90;;
16153;SDS011;8182;55.648;13.208;2023-07-29T12:51:47;2.30;;;2.10;;
16153;SDS011;8182;55.648;13.208;2023-07-29T12:54:14;2.47;;;1.90;;
16153;SDS011;8182;55.648;13.208;2023-07-29T12:56:41;2.03;;;1.83;;
16153;SDS011;8182;55.648;13.208;2023-07-29T12:59:08;3.00;;;1.90;;
16153;SDS011;8182;55.648;13.208;2023-07-29T13:01:36;2.10;;;1.90;;
16153;SDS011;8182;55.648;13.208;2023-07-29T13:04:03;4.83;;;2.07;;
16153;SDS011;8182;55.648;13.208;2023-07-29T13:06:30;2.10;;;1.90;;
16153;SDS011;8182;55.648;13.208;2023-07-29T13:08:57;2.97;;;2.20;;
16153;SDS011;8182;55.648;13.208;2023-07-29T13:11:24;2.60;;;1.80;;
16153;SDS011;8182;55.648;13.208;2023-07-29T13:13:51;2.13;;;1.90;;
16153;SDS011;8182;55.648;13.208;2023-07-29T13:16:18;2.03;;;1.93;;
16153;SDS011;8182;55.648;13.208;2023-07-29T13:18:46;3.43;;;2.43;;
16153;SDS011;8182;55.648;13.208;2023-07-29T13:21:13;2.33;;;2.13;;
16153;SDS011;8182;55.648;13.208;2023-07-29T13:23:40;3.60;;;2.23;;
16153;SDS011;8182;55.648;13.208;2023-07-29T13:26:10;4.17;;;2.50;;
16153;SDS011;8182;55.648;13.208;2023-07-29T13:28:37;2.40;;;2.20;;
16153;SDS011;8182;55.648;13.208;2023-07-29T13:31:04;3.50;;;2.33;;
16153;SDS011;8182;55.648;13.208;2023-07-29T13:33:32;2.10;;;1.90;;
16153;SDS011;8182;55.648;13.208;2023-07-29T13:36:00;2.80;;;2.03;;
16153;SDS011;8182;55.648;13.208;2023-07-29T13:38:28;2.50;;;2.30;;
16153;SDS011;8182;55.648;13.208;2023-07-29T13:40:55;2.30;;;2.10;;
16153;SDS011;8182;55.648;13.208;2023-07-29T13:43:29;2.47;;;2.27;;
16153;SDS011;8182;55.648;13.208;2023-07-29T13:45:55;2.70;;;2.50;;
16153;SDS011;8182;55.648;13.208;2023-07-29T13:48:24;2.73;;;2.17;;
16153;SDS011;8182;55.648;13.208;2023-07-29T13:50:51;2.80;;;2.40;;
16153;SDS011;8182;55.648;13.208;2023-07-29T13:53:20;3.13;;;2.87;;
16153;SDS011;8182;55.648;13.208;2023-07-29T13:55:46;2.63;;;2.43;;
16153;SDS011;8182;55.648;13.208;2023-07-29T13:58:14;3.73;;;2.20;;
16153;SDS011;8182;55.648;13.208;2023-07-29T14:00:40;3.27;;;2.23;;
16153;SDS011;8182;55.648;13.208;2023-07-29T14:03:07;2.30;;;2.10;;
16153;SDS011;8182;55.648;13.208;2023-07-29T14:05:37;2.30;;;2.10;;
16153;SDS011;8182;55.648;13.208;2023-07-29T14:08:07;3.83;;;2.40;;
16153;SDS011;8182;55.648;13.208;2023-07-29T14:10:35;2.63;;;2.30;;
16153;SDS011;8182;55.648;13.208;2023-07-29T14:13:02;3.20;;;2.13;;
16153;SDS011;8182;55.648;13.208;2023-07-29T14:15:32;4.30;;;2.93;;
16153;SDS011;8182;55.648;13.208;2023-07-29T14:18:16;3.47;;;2.80;;
16153;SDS011;8182;55.648;13.208;2023-07-29T14:24:30;2.90;;;2.70;;
16153;SDS011;8182;55.648;13.208;2023-07-29T14:27:31;3.93;;;3.40;;
16153;SDS011;8182;55.648;13.208;2023-07-29T14:30:17;3.73;;;3.43;;
16153;SDS011;8182;55.648;13.208;2023-07-29T14:39:29;4.00;;;3.67;;
16153;SDS011;8182;55.648;13.208;2023-07-29T14:42:14;4.30;;;3.90;;
16153;SDS011;8182;55.648;13.208;2023-07-29T14:44:53;4.00;;;3.70;;
16153;SDS011;8182;55.648;13.208;2023-07-29T14:47:35;4.40;;;3.83;;
16153;SDS011;8182;55.648;13.208;2023-07-29T14:50:34;4.60;;;3.93;;
16153;SDS011;8182;55.648;13.208;2023-07-29T14:53:09;4.90;;;4.40;;
16153;SDS011;8182;55.648;13.208;2023-07-29T14:55:52;4.43;;;4.03;;
16153;SDS011;8182;55.648;13.208;2023-07-29T14:59:16;4.40;;;4.10;;
16153;SDS011;8182;55.648;13.208;2023-07-29T15:02:10;5.87;;;4.80;;
16153;SDS011;8182;55.648;13.208;2023-07-29T15:05:05;5.93;;;4.63;;
16153;SDS011;8182;55.648;13.208;2023-07-29T15:09:30;5.60;;;4.63;;
16153;SDS011;8182;55.648;13.208;2023-07-29T15:11:26;4.73;;;4.20;;
16153;SDS011;8182;55.648;13.208;2023-07-29T15:14:16;4.37;;;3.90;;
16153;SDS011;8182;55.648;13.208;2023-07-29T15:17:20;4.87;;;4.40;;
16153;SDS011;8182;55.648;13.208;2023-07-29T15:23:26;4.57;;;3.90;;